^^
Datos históricos de la estación: Murcia-Puente Tocinos
Diario Informe para Enero 21, 2021 Unidades:  Métrico    Ingés   Ambas
Diario Semanal Mensual Anual
  Máxima: Mínima: Promedio:
Temperatura: 32.1 °C 22.9 °C 27 °C
Punto de rocio: 23.1 °C 16.1 °C 20.3 °C
Humedad: 85% 38.8% 69%
Velocidad viento: 20.9km/h 2.3km/h 8.1km/h
Racha viento: 33.3km/h - -
Viento- - ESE
Presión: 1017.0 hPa 1014.4 hPa -
Precipitación: 0.0 mm    
 
 
Tabla de datos para Enero 21, 2021
Hora Temperatura Punto de rocio Presión Viento Velocidad viento Racha viento Humedad Intensidad lluvia(por hora) Nubes
00:04 24.9 °C 21.2 °C 1015.3 hPa NE 6.4 km/h 7.6 km/h 80% 0.0 mm
00:09 24.8 °C 21.3 °C 1015.3 hPa NE 5.7 km/h 7.4 km/h 80.9% 0.0 mm
00:14 24.8 °C 21.3 °C 1015.3 hPa Este 5 km/h 8.4 km/h 81% 0.0 mm
00:19 24.8 °C 21.3 °C 1015.5 hPa Este 4.8 km/h 9.3 km/h 81% 0.0 mm
00:24 24.8 °C 21.3 °C 1015.5 hPa ESE 4.7 km/h 8.4 km/h 81% 0.0 mm
00:29 24.8 °C 21.3 °C 1015.5 hPa Este 4.8 km/h 7.4 km/h 81% 0.0 mm
00:34 24.7 °C 21.2 °C 1015.5 hPa ENE 5 km/h 7.4 km/h 81% 0.0 mm
00:39 24.7 °C 21.2 °C 1015.5 hPa NE 4.5 km/h 7.4 km/h 81% 0.0 mm
00:44 24.7 °C 21.2 °C 1015.5 hPa NE 3.9 km/h 8.4 km/h 81% 0.0 mm
00:49 24.7 °C 21.2 °C 1015.5 hPa NE 4.4 km/h 8.7 km/h 81% 0.0 mm
00:54 24.7 °C 21.2 °C 1015.5 hPa NE 5 km/h 10 km/h 81.1% 0.0 mm
00:59 24.6 °C 21.3 °C 1015.5 hPa NE 6 km/h 9.3 km/h 82% 0.0 mm
01:04 24.6 °C 21.3 °C 1015.5 hPa NE 6.9 km/h 10 km/h 82% 0.0 mm
01:09 24.5 °C 21.2 °C 1015.4 hPa NE 6.9 km/h 10 km/h 82% 0.0 mm
01:14 24.4 °C 21.1 °C 1015.4 hPa NE 6.9 km/h 9.3 km/h 82% 0.0 mm
01:19 24.4 °C 21.3 °C 1015.4 hPa NE 6.4 km/h 8.4 km/h 82.7% 0.0 mm
01:24 24.4 °C 21.3 °C 1015.4 hPa NE 5.8 km/h 8.4 km/h 83% 0.0 mm
01:29 24.4 °C 21.3 °C 1015.4 hPa NE 5.4 km/h 9.3 km/h 83% 0.0 mm
01:34 24.4 °C 21.3 °C 1015.5 hPa NE 5 km/h 8.4 km/h 83% 0.0 mm
01:39 24.4 °C 21.3 °C 1015.5 hPa NE 5.4 km/h 8.4 km/h 83% 0.0 mm
01:44 24.4 °C 21.3 °C 1015.5 hPa NE 5.8 km/h 7.4 km/h 83% 0.0 mm
01:49 24.3 °C 21.2 °C 1015.5 hPa Este 4.9 km/h 7.4 km/h 83% 0.0 mm
01:54 24.3 °C 21.2 °C 1015.5 hPa Este 3.9 km/h 7.4 km/h 83% 0.0 mm
01:59 24.3 °C 21.2 °C 1015.5 hPa Este 4.3 km/h 7.6 km/h 83% 0.0 mm
02:04 24.2 °C 21.1 °C 1015.6 hPa ENE 4.7 km/h 7.6 km/h 83% 0.0 mm
02:09 24.2 °C 21.2 °C 1015.6 hPa Este 4.7 km/h 8.4 km/h 83.5% 0.0 mm
02:14 24.2 °C 21.3 °C 1015.6 hPa ESE 4.7 km/h 7.6 km/h 84% 0.0 mm
02:19 24.2 °C 21.4 °C 1015.6 hPa ESE 4.3 km/h 5.8 km/h 84% 0.0 mm
02:24 24.3 °C 21.4 °C 1015.5 hPa ESE 3.9 km/h 5.8 km/h 83.6% 0.0 mm
02:29 24.3 °C 21.2 °C 1015.5 hPa ESE 3.4 km/h 5.8 km/h 83% 0.0 mm
02:34 24.4 °C 21.3 °C 1015.5 hPa Este 2.9 km/h 5.6 km/h 83% 0.0 mm
02:39 24.4 °C 21.2 °C 1015.5 hPa SE 3 km/h 5.8 km/h 82.6% 0.0 mm
02:44 24.4 °C 21.1 °C 1015.5 hPa ESE 3.2 km/h 5.8 km/h 82% 0.0 mm
02:49 24.4 °C 21.1 °C 1015.5 hPa ENE 3.1 km/h 5.8 km/h 82% 0.0 mm
02:54 24.4 °C 21.1 °C 1015.5 hPa NE 2.9 km/h 5.8 km/h 82% 0.0 mm
02:59 24.3 °C 21.1 °C 1015.5 hPa NO 3.1 km/h 7.4 km/h 82% 0.0 mm
03:04 24.2 °C 21.1 °C 1015.5 hPa NNO 3.2 km/h 6.4 km/h 82.7% 0.0 mm
03:09 24.2 °C 21.1 °C 1015.1 hPa NO 3.5 km/h 7.4 km/h 83% 0.0 mm
03:14 24.2 °C 21.1 °C 1015.1 hPa NO 3.9 km/h 6.9 km/h 83% 0.0 mm
03:19 24.1 °C 21.1 °C 1015.1 hPa ONO 3.6 km/h 7.4 km/h 83.2% 0.0 mm
03:24 24.1 °C 21.2 °C 1015.0 hPa ONO 3.2 km/h 5.6 km/h 84% 0.0 mm
03:29 24.1 °C 21.2 °C 1015.0 hPa ONO 3.2 km/h 5.8 km/h 84% 0.0 mm
03:34 24.1 °C 21.2 °C 1015.1 hPa ONO 3.2 km/h 5.6 km/h 84% 0.0 mm
03:39 24 °C 21.1 °C 1015.1 hPa ONO 3.2 km/h 5.6 km/h 84% 0.0 mm
03:44 23.9 °C 21.1 °C 1015.1 hPa ONO 3.2 km/h 5 km/h 84% 0.0 mm
03:49 23.9 °C 21.2 °C 1015.1 hPa NO 3.2 km/h 7.4 km/h 84.9% 0.0 mm
03:54 23.9 °C 21.2 °C 1014.9 hPa NO 3.2 km/h 4.7 km/h 85% 0.0 mm
03:59 23.9 °C 21.2 °C 1014.9 hPa NO 3.1 km/h 4.7 km/h 85% 0.0 mm
04:04 23.9 °C 21.2 °C 1014.9 hPa NO 2.9 km/h 3.7 km/h 85% 0.0 mm
04:09 23.8 °C 21.1 °C 1014.8 hPa SO 2.6 km/h 7.4 km/h 84.6% 0.0 mm
04:14 23.8 °C 20.9 °C 1014.8 hPa SE 2.3 km/h 7.4 km/h 84% 0.0 mm
04:19 23.8 °C 20.9 °C 1014.8 hPa ESE 3 km/h 5.8 km/h 84% 0.0 mm
04:24 23.7 °C 20.8 °C 1014.7 hPa ESE 3.9 km/h 5.8 km/h 84% 0.0 mm
04:29 23.7 °C 20.9 °C 1014.7 hPa ESE 3.5 km/h 5.6 km/h 84.4% 0.0 mm
04:34 23.7 °C 20.9 °C 1014.8 hPa ESE 3.2 km/h 4.7 km/h 84.3% 0.0 mm
04:39 23.7 °C 21 °C 1014.8 hPa SE 3.1 km/h 5.8 km/h 85% 0.0 mm
04:44 23.7 °C 21 °C 1014.8 hPa SO 2.9 km/h 5.6 km/h 85% 0.0 mm
04:49 23.7 °C 21 °C 1014.8 hPa SSO 2.6 km/h 3.9 km/h 85% 0.0 mm
04:54 23.7 °C 21 °C 1014.8 hPa SSO 2.3 km/h 5.6 km/h 85% 0.0 mm
04:59 23.7 °C 21 °C 1014.8 hPa SO 2.8 km/h 7.6 km/h 85% 0.0 mm
05:04 23.6 °C 20.9 °C 1015.0 hPa SO 3.2 km/h 10 km/h 85% 0.0 mm
05:09 23.6 °C 20.9 °C 1015.0 hPa OSO 4 km/h 9.3 km/h 84.8% 0.0 mm
05:14 23.7 °C 20.9 °C 1015.0 hPa OSO 5 km/h 7.6 km/h 84.2% 0.0 mm
05:19 23.8 °C 20.9 °C 1015.0 hPa Sur 4.8 km/h 10 km/h 84% 0.0 mm
05:24 23.8 °C 21 °C 1015.0 hPa SSE 4.7 km/h 10 km/h 84% 0.0 mm
05:29 23.9 °C 21 °C 1015.0 hPa Sur 5.7 km/h 11.1 km/h 84% 0.0 mm
05:34 23.8 °C 20.7 °C 1015.0 hPa Sur 6.9 km/h 9.5 km/h 83.1% 0.0 mm
05:39 23.8 °C 20.7 °C 1014.9 hPa Sur 6.4 km/h 7.6 km/h 83% 0.0 mm
05:44 23.8 °C 20.7 °C 1014.9 hPa SSO 5.8 km/h 7.4 km/h 83% 0.0 mm
05:49 23.8 °C 20.7 °C 1014.9 hPa SO 5.3 km/h 8.4 km/h 83% 0.0 mm
05:54 23.8 °C 20.7 °C 1014.9 hPa SSO 4.7 km/h 7.4 km/h 83% 0.0 mm
05:59 23.8 °C 20.7 °C 1014.9 hPa Sur 4.7 km/h 7.6 km/h 83% 0.0 mm
06:04 23.7 °C 20.7 °C 1014.9 hPa Sur 4.7 km/h 8.4 km/h 83% 0.0 mm
06:09 23.7 °C 20.8 °C 1014.8 hPa SSO 4.8 km/h 8.4 km/h 83.5% 0.0 mm
06:14 23.7 °C 20.8 °C 1014.8 hPa SSO 5 km/h 7.6 km/h 84% 0.0 mm
06:19 23.7 °C 20.8 °C 1014.9 hPa SO 4.8 km/h 8.4 km/h 84% 0.0 mm
06:24 23.7 °C 20.8 °C 1014.9 hPa OSO 4.7 km/h 7.4 km/h 84% 0.0 mm
06:29 23.7 °C 20.8 °C 1014.9 hPa OSO 4.7 km/h 7.4 km/h 84% 0.0 mm
06:34 23.7 °C 20.8 °C 1014.9 hPa Oeste 4.7 km/h 7.6 km/h 84% 0.0 mm
06:39 23.6 °C 20.7 °C 1014.7 hPa OSO 4.8 km/h 8.4 km/h 84% 0.0 mm
06:44 23.5 °C 20.6 °C 1014.7 hPa OSO 5 km/h 7.6 km/h 84% 0.0 mm
06:49 23.4 °C 20.6 °C 1014.9 hPa OSO 5 km/h 7.6 km/h 84% 0.0 mm
06:54 23.4 °C 20.6 °C 1014.9 hPa OSO 5 km/h 9.5 km/h 84% 0.0 mm
06:59 23.4 °C 20.6 °C 1014.9 hPa OSO 5 km/h 9.3 km/h 84% 0.0 mm
07:04 23.3 °C 20.5 °C 1015.1 hPa OSO 5 km/h 11.1 km/h 84% 0.0 mm
07:09 23.3 °C 20.2 °C 1015.1 hPa Oeste 5.4 km/h 11.1 km/h 83% 0.0 mm
07:14 23.2 °C 20.2 °C 1015.1 hPa Oeste 5.8 km/h 10 km/h 83% 0.0 mm
07:19 23.1 °C 20.1 °C 1015.1 hPa Oeste 5.8 km/h 11.1 km/h 82.9% 0.0 mm
07:24 23.1 °C 19.8 °C 1015.1 hPa ONO 5.8 km/h 11.1 km/h 82% 0.0 mm
07:29 23 °C 19.7 °C 1015.1 hPa OSO 5.8 km/h 7.6 km/h 82% 0.0 mm
07:34 22.9 °C 19.7 °C 1015.4 hPa SO 5.8 km/h 10.3 km/h 82% 0.0 mm
07:39 22.9 °C 19.5 °C 1015.4 hPa OSO 6.1 km/h 11.1 km/h 81.3% 0.0 mm
07:44 22.9 °C 19.4 °C 1015.4 hPa Oeste 6.4 km/h 10 km/h 81% 0.0 mm
07:49 22.9 °C 19.4 °C 1015.6 hPa OSO 6.2 km/h 10 km/h 81% 0.0 mm
07:54 22.9 °C 19.4 °C 1015.6 hPa OSO 5.8 km/h 9.3 km/h 81% 0.0 mm
07:59 22.9 °C 19.4 °C 1015.6 hPa OSO 5.4 km/h 8.4 km/h 80.9% 0.0 mm
08:04 22.9 °C 19.3 °C 1015.8 hPa Oeste 5 km/h 10 km/h 80% 0.0 mm
08:09 22.9 °C 19.3 °C 1015.8 hPa ONO 5 km/h 9.5 km/h 80% 0.0 mm
08:14 23 °C 19.4 °C 1015.8 hPa ONO 5 km/h 7.4 km/h 80% 0.0 mm
08:19 23.1 °C 19.4 °C 1015.8 hPa ONO 4.5 km/h 7.6 km/h 80% 0.0 mm
08:24 23.1 °C 19.4 °C 1015.8 hPa Oeste 3.9 km/h 8.4 km/h 80% 0.0 mm
08:29 23.1 °C 19.5 °C 1015.8 hPa Oeste 4.2 km/h 7.4 km/h 80% 0.0 mm
08:34 23.2 °C 19.6 °C 1015.9 hPa Oeste 4.7 km/h 7.4 km/h 80% 0.0 mm
08:39 23.3 °C 19.7 °C 1015.9 hPa Oeste 4.7 km/h 7.6 km/h 80.3% 0.0 mm
08:44 23.4 °C 20 °C 1015.9 hPa ONO 4.7 km/h 8.4 km/h 81% 0.0 mm
08:49 23.6 °C 20.2 °C 1016.0 hPa Oeste 5.2 km/h 11.1 km/h 81% 0.0 mm
08:54 23.6 °C 20.2 °C 1016.0 hPa OSO 5.8 km/h 11.1 km/h 81% 0.0 mm
08:59 23.7 °C 20.2 °C 1016.0 hPa OSO 6.1 km/h 9.5 km/h 81% 0.0 mm
09:04 23.7 °C 20.2 °C 1016.1 hPa OSO 6.4 km/h 11.1 km/h 80.6% 0.0 mm
09:09 23.8 °C 20.2 °C 1016.1 hPa OSO 6.7 km/h 11.1 km/h 80% 0.0 mm
09:14 23.8 °C 20.2 °C 1016.1 hPa OSO 6.9 km/h 9.5 km/h 80% 0.0 mm
09:19 23.9 °C 20.2 °C 1016.2 hPa SO 6.7 km/h 11.1 km/h 80% 0.0 mm
09:24 24 °C 20.3 °C 1016.2 hPa SO 6.4 km/h 11.1 km/h 79.6% 0.0 mm
09:29 24.2 °C 20.4 °C 1016.2 hPa OSO 6.4 km/h 10.3 km/h 79.3% 0.0 mm
09:34 24.3 °C 20.2 °C 1016.4 hPa OSO 6.4 km/h 11.1 km/h 78.2% 0.0 mm
09:39 24.3 °C 20.2 °C 1016.4 hPa OSO 6.4 km/h 13 km/h 78% 0.0 mm
09:44 24.4 °C 20.3 °C 1016.4 hPa OSO 6.4 km/h 11.1 km/h 78% 0.0 mm
09:49 24.4 °C 20.2 °C 1016.5 hPa OSO 7.3 km/h 11.1 km/h 77.5% 0.0 mm
09:54 24.6 °C 20.2 °C 1016.5 hPa OSO 8.4 km/h 11.9 km/h 77% 0.0 mm
09:59 24.7 °C 20.3 °C 1016.5 hPa OSO 7.4 km/h 7.6 km/h 77% 0.0 mm
10:04 24.9 °C 20.4 °C 1016.5 hPa Oeste 6.4 km/h 10 km/h 76.1% 0.0 mm
10:09 25.1 °C 20.4 °C 1016.4 hPa OSO 5.8 km/h 10 km/h 75% 0.0 mm
10:14 25.2 °C 20.5 °C 1016.4 hPa SO 5 km/h 9.3 km/h 75% 0.0 mm
10:19 25.3 °C 20.4 °C 1016.5 hPa OSO 5 km/h 9.5 km/h 74% 0.0 mm
10:24 25.5 °C 20.1 °C 1016.5 hPa OSO 5 km/h 11.1 km/h 72.3% 0.0 mm
10:29 25.6 °C 20.1 °C 1016.5 hPa Oeste 5.4 km/h 13 km/h 71.8% 0.0 mm
10:34 25.7 °C 20 °C 1016.6 hPa ONO 5.8 km/h 8.4 km/h 71% 0.0 mm
10:39 25.8 °C 20.2 °C 1016.6 hPa Oeste 5.3 km/h 7.4 km/h 71.3% 0.0 mm
10:44 26.1 °C 20.1 °C 1016.6 hPa OSO 4.7 km/h 8.4 km/h 69.7% 0.0 mm
10:49 26.3 °C 20.1 °C 1016.6 hPa Oeste 4 km/h 7.4 km/h 68.7% 0.0 mm
10:54 26.6 °C 20 °C 1016.5 hPa NNO 3.2 km/h 7.4 km/h 67.2% 0.0 mm
10:59 26.9 °C 20 °C 1016.5 hPa North 3.2 km/h 7.4 km/h 66% 0.0 mm
11:04 27.3 °C 20.1 °C 1016.6 hPa NE 3.2 km/h 7.4 km/h 64.8% 0.0 mm
11:09 27.4 °C 19.6 °C 1016.6 hPa NE 3.9 km/h 11.9 km/h 62.4% 0.0 mm
11:14 27.4 °C 19.1 °C 1016.6 hPa ENE 4.7 km/h 11.1 km/h 60.6% 0.0 mm
11:19 27.4 °C 18.7 °C 1016.8 hPa ENE 5.5 km/h 11.1 km/h 59.2% 0.0 mm
11:24 27.5 °C 18.6 °C 1016.8 hPa NNE 6.4 km/h 10 km/h 58.3% 0.0 mm
11:29 27.7 °C 18.7 °C 1016.8 hPa SE 5.8 km/h 11.1 km/h 58% 0.0 mm
11:34 27.8 °C 18.7 °C 1016.9 hPa Este 5 km/h 11.9 km/h 57.4% 0.0 mm
11:39 28 °C 18.3 °C 1016.9 hPa Este 5.7 km/h 11.9 km/h 55.6% 0.0 mm
11:44 27.9 °C 18.3 °C 1016.9 hPa ENE 6.4 km/h 14.8 km/h 55.9% 0.0 mm
11:49 27.9 °C 18.3 °C 1016.9 hPa ENE 7 km/h 13 km/h 56.1% 0.0 mm
11:54 28.1 °C 18.8 °C 1016.9 hPa NE 7.6 km/h 11.1 km/h 57.2% 0.0 mm
11:59 28.3 °C 18.8 °C 1016.9 hPa North 6.3 km/h 11.9 km/h 56.5% 0.0 mm
12:04 28.4 °C 18.8 °C 1016.9 hPa NNE 5 km/h 12.2 km/h 56% 0.0 mm
12:09 28.6 °C 18.8 °C 1016.8 hPa NE 5.7 km/h 13 km/h 55.4% 0.0 mm
12:14 28.7 °C 19 °C 1016.8 hPa NE 6.4 km/h 13 km/h 56% 0.0 mm
12:19 28.7 °C 18.9 °C 1016.8 hPa NNE 6.4 km/h 18.5 km/h 55.4% 0.0 mm
12:24 28.6 °C 18.5 °C 1016.8 hPa NNE 6.4 km/h 16.7 km/h 54.5% 0.0 mm
12:29 28.7 °C 18.6 °C 1016.8 hPa NNE 8.2 km/h 18.5 km/h 54.5% 0.0 mm
12:34 28.7 °C 19 °C 1016.8 hPa NE 10 km/h 18.5 km/h 55.8% 0.0 mm
12:39 28.8 °C 19.2 °C 1016.5 hPa NNE 9.8 km/h 14.8 km/h 56.3% 0.0 mm
12:44 29 °C 19.4 °C 1016.5 hPa NE 9.5 km/h 14.8 km/h 56.4% 0.0 mm
12:49 29.4 °C 19.6 °C 1016.5 hPa NE 9 km/h 18.5 km/h 55.7% 0.0 mm
12:54 29.4 °C 19.8 °C 1016.3 hPa NNE 8.4 km/h 16.7 km/h 56.3% 0.0 mm
12:59 29.5 °C 19.9 °C 1016.3 hPa NNE 9.2 km/h 17.2 km/h 56.4% 0.0 mm
13:04 29.6 °C 20.1 °C 1016.3 hPa NNE 10 km/h 20.9 km/h 56.6% 0.0 mm
13:09 29.5 °C 20 °C 1016.3 hPa NE 10.1 km/h 19 km/h 56.6% 0.0 mm
13:14 29.6 °C 20.1 °C 1016.3 hPa NNE 10.3 km/h 18.5 km/h 57% 0.0 mm
13:19 29.7 °C 20.4 °C 1016.3 hPa NNE 10.1 km/h 24.1 km/h 57.3% 0.0 mm
13:24 29.9 °C 20.4 °C 1016.3 hPa North 10 km/h 19 km/h 57% 0.0 mm
13:29 30 °C 20.8 °C 1016.3 hPa NNE 10 km/h 18.5 km/h 57.6% 0.0 mm
13:34 30.3 °C 20.8 °C 1016.3 hPa NE 10 km/h 25.9 km/h 57% 0.0 mm
13:39 30.5 °C 21 °C 1016.1 hPa NE 10 km/h 19 km/h 57% 0.0 mm
13:44 30.8 °C 21 °C 1016.1 hPa NE 10 km/h 19 km/h 56% 0.0 mm
13:49 30.8 °C 20.7 °C 1016.2 hPa NE 10.5 km/h 26.2 km/h 54.9% 0.0 mm
13:54 30.8 °C 20.4 °C 1016.2 hPa NE 11.1 km/h 22.2 km/h 54.1% 0.0 mm
13:59 30.8 °C 20.4 °C 1016.2 hPa NE 12.1 km/h 20.9 km/h 54% 0.0 mm
14:04 30.8 °C 20.5 °C 1016.2 hPa NE 13 km/h 23.3 km/h 54% 0.0 mm
14:09 30.8 °C 20.5 °C 1016.2 hPa ENE 12.5 km/h 24.1 km/h 54.2% 0.0 mm
14:14 30.9 °C 20.4 °C 1016.2 hPa NE 11.9 km/h 24.1 km/h 53.8% 0.0 mm
14:19 30.9 °C 20.2 °C 1016.2 hPa NE 13.3 km/h 22.2 km/h 53% 0.0 mm
14:24 31 °C 20.5 °C 1016.2 hPa NE 14.8 km/h 19 km/h 53.4% 0.0 mm
14:29 31.3 °C 20.9 °C 1016.2 hPa NE 13.5 km/h 22.2 km/h 54% 0.0 mm
14:34 31.4 °C 20.7 °C 1016.2 hPa NE 11.9 km/h 22.2 km/h 53% 0.0 mm
14:39 31.4 °C 20.8 °C 1016.0 hPa NE 12.4 km/h 23.3 km/h 53.3% 0.0 mm
14:44 31.3 °C 20.8 °C 1016.0 hPa NE 13 km/h 24.5 km/h 53.9% 0.0 mm
14:49 31.2 °C 20.8 °C 1016.0 hPa NE 13.9 km/h 30.6 km/h 54% 0.0 mm
14:54 31.2 °C 20.8 °C 1015.8 hPa NE 14.8 km/h 29.6 km/h 54% 0.0 mm
14:59 31.2 °C 20.7 °C 1015.8 hPa NE 15.4 km/h 24.1 km/h 54% 0.0 mm
15:04 31.2 °C 20.8 °C 1015.8 hPa NNE 16.1 km/h 29.6 km/h 54% 0.0 mm
15:09 31.2 °C 20.7 °C 1015.7 hPa NE 16.1 km/h 25.9 km/h 53.6% 0.0 mm
15:14 31.3 °C 20.7 °C 1015.7 hPa NE 16.1 km/h 24.1 km/h 53.5% 0.0 mm
15:19 31.4 °C 20.6 °C 1015.8 hPa NE 15 km/h 27.8 km/h 52.6% 0.0 mm
15:24 31.3 °C 20.4 °C 1015.8 hPa NE 13.7 km/h 27.8 km/h 52.4% 0.0 mm
15:29 31.4 °C 20.6 °C 1015.8 hPa NE 14.2 km/h 24.1 km/h 52.7% 0.0 mm
15:34 31.7 °C 20.6 °C 1015.8 hPa NE 14.8 km/h 22.2 km/h 51.9% 0.0 mm
15:39 31.7 °C 20.3 °C 1015.7 hPa NE 13.6 km/h 26.2 km/h 50.9% 0.0 mm
15:44 31.6 °C 20.3 °C 1015.7 hPa NE 12.2 km/h 20.4 km/h 51.2% 0.0 mm
15:49 31.5 °C 20.2 °C 1015.7 hPa NE 12.6 km/h 26.2 km/h 51.1% 0.0 mm
15:54 31.3 °C 20.1 °C 1015.6 hPa NNE 13 km/h 22.2 km/h 51.5% 0.0 mm
15:59 31.5 °C 20 °C 1015.6 hPa NE 13.5 km/h 26.2 km/h 50.5% 0.0 mm
16:04 31.7 °C 19.8 °C 1015.6 hPa NE 14 km/h 22.2 km/h 49.4% 0.0 mm
16:09 31.8 °C 19.7 °C 1015.5 hPa NE 14 km/h 29.6 km/h 48.8% 0.0 mm
16:14 31.7 °C 19.6 °C 1015.5 hPa NNE 14 km/h 25.1 km/h 49% 0.0 mm
16:19 31.7 °C 19.3 °C 1015.5 hPa NE 14.8 km/h 25.9 km/h 47.8% 0.0 mm
16:24 31.8 °C 19.3 °C 1015.1 hPa NE 15.6 km/h 24.1 km/h 47.7% 0.0 mm
16:29 32 °C 19.4 °C 1015.1 hPa NNE 15.6 km/h 24.5 km/h 47.4% 0.0 mm
16:34 32.1 °C 19.4 °C 1015.1 hPa NNE 15.6 km/h 25.9 km/h 47.1% 0.0 mm
16:39 32 °C 19.6 °C 1014.7 hPa NE 16.4 km/h 29.6 km/h 48% 0.0 mm
16:44 31.8 °C 19.3 °C 1014.7 hPa NNE 17.2 km/h 33.3 km/h 47.5% 0.0 mm
16:49 31.7 °C 19.2 °C 1014.7 hPa NNE 18.8 km/h 31.7 km/h 47.8% 0.0 mm
16:54 31.8 °C 19.3 °C 1014.5 hPa NE 20.9 km/h 25.9 km/h 47.6% 0.0 mm
16:59 31.8 °C 19.3 °C 1014.5 hPa NE 18.4 km/h 27.8 km/h 47.4% 0.0 mm
17:04 31.9 °C 19.2 °C 1014.7 hPa NE 15.6 km/h 24.1 km/h 47.1% 0.0 mm
17:09 31.9 °C 18.8 °C 1014.7 hPa NE 15.2 km/h 25.1 km/h 45.8% 0.0 mm
17:14 31.8 °C 18.4 °C 1014.7 hPa NE 14.8 km/h 25.9 km/h 45% 0.0 mm
17:19 31.7 °C 18.1 °C 1014.7 hPa NE 15.4 km/h 24.5 km/h 44.2% 0.0 mm
17:24 31.7 °C 18.1 °C 1014.5 hPa NE 16.1 km/h 22.2 km/h 44.5% 0.0 mm
17:29 31.9 °C 18.4 °C 1014.5 hPa ENE 13.7 km/h 15.6 km/h 44.7% 0.0 mm
17:34 31.9 °C 18.2 °C 1014.6 hPa NE 11.1 km/h 18.5 km/h 44.1% 0.0 mm
17:39 32 °C 18.6 °C 1014.6 hPa NE 10.5 km/h 19 km/h 45% 0.0 mm
17:44 32 °C 18.4 °C 1014.6 hPa NE 10 km/h 24.1 km/h 44.5% 0.0 mm
17:49 31.9 °C 18.6 °C 1014.6 hPa NE 12.7 km/h 24.1 km/h 45.4% 0.0 mm
17:54 31.9 °C 18.8 °C 1014.5 hPa ENE 15.6 km/h 20.1 km/h 46% 0.0 mm
17:59 31.9 °C 18.6 °C 1014.5 hPa NE 13.4 km/h 20.4 km/h 45.3% 0.0 mm
18:04 31.9 °C 17.7 °C 1014.5 hPa NNE 11.1 km/h 25.9 km/h 42.9% 0.0 mm
18:09 31.8 °C 17 °C 1014.5 hPa NNE 12 km/h 25.9 km/h 41.2% 0.0 mm
18:14 31.7 °C 17.6 °C 1014.5 hPa NNE 13 km/h 24.1 km/h 43.2% 0.0 mm
18:19 31.5 °C 16.9 °C 1014.5 hPa NNE 14.2 km/h 24.1 km/h 41.4% 0.0 mm
18:24 31.6 °C 16.3 °C 1014.4 hPa NE 15.6 km/h 22.5 km/h 40.1% 0.0 mm
18:29 31.7 °C 16.2 °C 1014.4 hPa NNE 14 km/h 23.3 km/h 39.5% 0.0 mm
18:34 31.7 °C 16.4 °C 1014.4 hPa NE 12.2 km/h 24.1 km/h 39.8% 0.0 mm
18:39 31.9 °C 16.3 °C 1014.4 hPa NNE 12.9 km/h 24.1 km/h 39.2% 0.0 mm
18:44 31.9 °C 16.2 °C 1014.4 hPa NNE 13.7 km/h 22.2 km/h 39% 0.0 mm
18:49 31.9 °C 16.1 °C 1014.5 hPa NNE 13.7 km/h 22.5 km/h 38.8% 0.0 mm
18:54 31.8 °C 16.1 °C 1014.5 hPa NNE 13.7 km/h 22.5 km/h 39% 0.0 mm
18:59 31.7 °C 16.2 °C 1014.5 hPa NE 13.8 km/h 22.5 km/h 39.3% 0.0 mm
19:04 31.6 °C 16.7 °C 1014.6 hPa NE 14 km/h 20.4 km/h 41% 0.0 mm
19:09 31.5 °C 17.8 °C 1014.6 hPa NE 13.5 km/h 22.2 km/h 43.9% 0.0 mm
19:14 31.3 °C 18 °C 1014.6 hPa NE 13 km/h 24.5 km/h 45% 0.0 mm
19:19 31.3 °C 17.9 °C 1014.6 hPa NE 12.7 km/h 24.1 km/h 45% 0.0 mm
19:24 31.2 °C 18.5 °C 1014.5 hPa NE 12.2 km/h 20.9 km/h 46.9% 0.0 mm
19:29 30.9 °C 18.8 °C 1014.5 hPa NE 12.2 km/h 19 km/h 48.5% 0.0 mm
19:34 30.7 °C 19.1 °C 1014.5 hPa NE 12.2 km/h 22.2 km/h 49.8% 0.0 mm
19:39 30.5 °C 19.3 °C 1014.4 hPa NE 12.1 km/h 20.4 km/h 51.1% 0.0 mm
19:44 30.3 °C 19.7 °C 1014.4 hPa NE 11.9 km/h 24.1 km/h 53.1% 0.0 mm
19:49 30 °C 19.9 °C 1014.6 hPa NE 12.7 km/h 22.5 km/h 54.7% 0.0 mm
19:54 29.8 °C 20.1 °C 1014.6 hPa NE 13.7 km/h 22.2 km/h 55.9% 0.0 mm
19:59 29.8 °C 20 °C 1014.6 hPa NE 12.4 km/h 20.1 km/h 56% 0.0 mm
20:04 29.5 °C 19.8 °C 1014.6 hPa NE 11.1 km/h 22.2 km/h 56% 0.0 mm
20:09 29.3 °C 19.5 °C 1014.4 hPa NE 12 km/h 22.2 km/h 55.5% 0.0 mm
20:14 29.2 °C 19.2 °C 1014.4 hPa NE 13 km/h 21.7 km/h 55% 0.0 mm
20:19 29.1 °C 18.8 °C 1014.8 hPa NE 13.3 km/h 22.2 km/h 53.9% 0.0 mm
20:24 28.9 °C 19 °C 1014.8 hPa NE 13.7 km/h 13 km/h 55% 0.0 mm
20:29 28.8 °C 18.6 °C 1014.8 hPa NE 11.2 km/h 15.6 km/h 53.9% 0.0 mm
20:34 28.8 °C 18.6 °C 1014.8 hPa NE 8.7 km/h 19 km/h 54.4% 0.0 mm
20:39 28.7 °C 18.9 °C 1014.8 hPa NE 10.7 km/h 20.4 km/h 55.8% 0.0 mm
20:44 28.5 °C 19.3 °C 1014.8 hPa NE 13 km/h 20.9 km/h 57.3% 0.0 mm
20:49 28.3 °C 19.7 °C 1014.8 hPa NE 12.7 km/h 20.4 km/h 59.6% 0.0 mm
20:54 28.1 °C 20 °C 1014.5 hPa NE 12.2 km/h 20.4 km/h 61.5% 0.0 mm
20:59 27.9 °C 20.1 °C 1014.5 hPa NE 12.2 km/h 18.5 km/h 62.7% 0.0 mm
21:04 27.7 °C 20.1 °C 1015.0 hPa NE 12.2 km/h 18.5 km/h 63.2% 0.0 mm
21:09 27.7 °C 20.4 °C 1015.0 hPa NE 12.1 km/h 20.4 km/h 64.8% 0.0 mm
21:14 27.5 °C 20.7 °C 1015.0 hPa NE 11.9 km/h 22.5 km/h 66.5% 0.0 mm
21:19 27.3 °C 21 °C 1015.0 hPa NE 12.4 km/h 22.5 km/h 68.5% 0.0 mm
21:24 27.3 °C 21.2 °C 1015.0 hPa NE 13 km/h 17.2 km/h 69.4% 0.0 mm
21:29 27.2 °C 21.3 °C 1015.0 hPa NE 11.7 km/h 20.9 km/h 70.2% 0.0 mm
21:34 27.1 °C 21.5 °C 1015.0 hPa NE 10.3 km/h 18.5 km/h 71.2% 0.0 mm
21:39 27.1 °C 21.6 °C 1014.9 hPa NE 10.3 km/h 14.8 km/h 72% 0.0 mm
21:44 26.9 °C 21.5 °C 1014.9 hPa NE 10.3 km/h 14.8 km/h 72.3% 0.0 mm
21:49 26.9 °C 21.7 °C 1015.2 hPa NE 9 km/h 17.2 km/h 73% 0.0 mm
21:54 26.8 °C 21.8 °C 1015.2 hPa NE 7.6 km/h 16.7 km/h 73.9% 0.0 mm
21:59 26.7 °C 21.8 °C 1015.2 hPa NE 8.5 km/h 11.9 km/h 74.8% 0.0 mm
22:04 26.7 °C 22 °C 1015.5 hPa NE 9.5 km/h 12.2 km/h 75.5% 0.0 mm
22:09 26.6 °C 22.1 °C 1015.5 hPa NE 9 km/h 14.8 km/h 76.5% 0.0 mm
22:14 26.6 °C 22.3 °C 1015.5 hPa NE 8.4 km/h 13 km/h 77.3% 0.0 mm
22:19 26.5 °C 22.4 °C 1015.9 hPa NE 8 km/h 13 km/h 78.4% 0.0 mm
22:24 26.4 °C 22.5 °C 1015.9 hPa NE 7.6 km/h 11.1 km/h 79% 0.0 mm
22:29 26.4 °C 22.6 °C 1015.9 hPa NE 7.3 km/h 13 km/h 79.6% 0.0 mm
22:34 26.3 °C 22.6 °C 1016.0 hPa NE 6.9 km/h 14 km/h 80% 0.0 mm
22:39 26.2 °C 22.7 °C 1016.0 hPa NNE 7.6 km/h 14.8 km/h 80.9% 0.0 mm
22:44 26.2 °C 22.7 °C 1016.0 hPa NE 8.4 km/h 13 km/h 81.3% 0.0 mm
22:49 26.2 °C 22.8 °C 1016.4 hPa NE 8 km/h 11.9 km/h 82% 0.0 mm
22:54 26.1 °C 22.9 °C 1016.4 hPa NNE 7.6 km/h 9.3 km/h 82.5% 0.0 mm
22:59 26.1 °C 23 °C 1016.4 hPa NNE 6.7 km/h 9.3 km/h 83% 0.0 mm
23:04 26 °C 22.9 °C 1016.6 hPa North 5.8 km/h 9.5 km/h 83% 0.0 mm
23:09 26 °C 22.8 °C 1016.6 hPa NE 5.4 km/h 7.4 km/h 83% 0.0 mm
23:14 25.9 °C 22.8 °C 1016.6 hPa ENE 5 km/h 7.4 km/h 83% 0.0 mm
23:19 25.9 °C 22.8 °C 1016.8 hPa NE 4.2 km/h 5.8 km/h 83% 0.0 mm
23:24 25.9 °C 22.9 °C 1016.8 hPa Este 3.2 km/h 8.4 km/h 83.5% 0.0 mm
23:29 25.9 °C 23 °C 1016.8 hPa ESE 3.5 km/h 7.4 km/h 84% 0.0 mm
23:34 26 °C 23.1 °C 1016.9 hPa Este 3.9 km/h 7.4 km/h 84% 0.0 mm
23:39 26 °C 23.1 °C 1016.9 hPa Este 3.9 km/h 7.4 km/h 84% 0.0 mm
23:44 25.9 °C 23 °C 1016.9 hPa Este 3.9 km/h 7.4 km/h 84% 0.0 mm
23:49 25.9 °C 23 °C 1017.0 hPa NE 3.9 km/h 7.4 km/h 84% 0.0 mm
23:54 25.9 °C 23 °C 1017.0 hPa NE 3.9 km/h 7.4 km/h 84% 0.0 mm
23:59 25.9 °C 23 °C 1017.0 hPa NNE 3.9 km/h 7.4 km/h 84% 0.0 mm
Murcia-Puente Tocinos, Espa?a
Compliments of Weather Underground - 3.25 mb

La estación de MeteoMurcia.com, publica sus datos en los siguientes proyectos:

Weather Underground PWS IMURCIAP2 Meteoclimatic www.awekas.at

W3Counter
Web Analytics